WetterOnline ( https://www.wetteronline.de )

Wetter aktuell Dorf Mecklenburg

Aktuelles Wetter: Boltenhagen (17m)

6-stündlich | Neueste Meldungen
Ortszeit Temperatur Wetter
Do, 26.11. 1:00 2.5° C bedeckt
Mi, 25.11. 19:00 2.0° C bedeckt
Mi, 25.11. 13:00 2.1° C bedeckt
Mi, 25.11. 7:00 1.8° C bedeckt
Mi, 25.11. 1:00 4.0° C bedeckt
Di, 24.11. 19:00 7.4° C bedeckt
Di, 24.11. 13:00 7.2° C bedeckt
Di, 24.11. 7:00 4.0° C bedeckt
Ortszeit Temperatur Wetter
Do, 26.11. 3:00 3.1° C bedeckt
Do, 26.11. 2:30 3.0° C bedeckt
Do, 26.11. 2:20 3.0° C bedeckt
Do, 26.11. 2:10 2.9° C bedeckt
Do, 26.11. 2:00 2.9° C bedeckt
Do, 26.11. 1:50 2.9° C bedeckt
Do, 26.11. 1:30 2.8° C bedeckt
Do, 26.11. 1:00 2.5° C bedeckt
Ortszeit Relative Feuchte Sichtweite
Do, 26.11. 1:00 99% 1.7 km
Mi, 25.11. 19:00 99% 2.4 km
Mi, 25.11. 13:00 96% 10 km
Mi, 25.11. 7:00 96% 5.0 km
Mi, 25.11. 1:00 96% 6 km
Di, 24.11. 19:00 85% 21 km
Di, 24.11. 13:00 86% 18 km
Di, 24.11. 7:00 89% 14 km
Ortszeit Relative Feuchte Sichtweite
Do, 26.11. 3:00 96% 6 km
Do, 26.11. 2:30 97% 5.0 km
Do, 26.11. 2:20 97% -
Do, 26.11. 2:10 97% -
Do, 26.11. 2:00 97% 4.3 km
Do, 26.11. 1:50 97% -
Do, 26.11. 1:30 99% 2.7 km
Do, 26.11. 1:00 99% 1.7 km
Ortszeit Niederschlagsmenge Niederschlagsart
Do, 26.11. 1:00 0.0 l/m2 in 6 Std. -
Mi, 25.11. 19:00 0.0 l/m2 in 12 Std. -
Mi, 25.11. 13:00 0.0 l/m2 in 6 Std. -
Mi, 25.11. 7:00 0.0 l/m2 in 12 Std. -
Mi, 25.11. 1:00 0.0 l/m2 in 6 Std. -
Di, 24.11. 19:00 0.0 l/m2 in 12 Std. -
Di, 24.11. 13:00 0.0 l/m2 in 6 Std. -
Di, 24.11. 7:00 0.0 l/m2 in 12 Std. -
Ortszeit Niederschlagsmenge Niederschlagsart
Do, 26.11. 3:00 keine Meldung -
Do, 26.11. 2:30 0.0 l/m2 in 1 Std. -
Do, 26.11. 2:20 keine Meldung -
Do, 26.11. 2:10 keine Meldung -
Do, 26.11. 2:00 0.0 l/m2 in 1 Std. -
Do, 26.11. 1:50 keine Meldung -
Do, 26.11. 1:30 0.0 l/m2 in 1 Std. -
Do, 26.11. 1:00 0.0 l/m2 in 1 Std. -
Ortszeit Stärke Spitze Richtung
km/h Bft. km/h Grad Sektor
Do, 26.11. 1:00 17 3 31 210° SW
Mi, 25.11. 19:00 18 3 36 200° S
Mi, 25.11. 13:00 18 3 32 200° S
Mi, 25.11. 7:00 14 3 25 210° SW
Mi, 25.11. 1:00 18 3 32 210° SW
Di, 24.11. 19:00 18 3 40 210° SW
Di, 24.11. 13:00 25 4 43 210° SW
Di, 24.11. 7:00 20 4 30 210° SW
Ortszeit Stärke Spitze Richtung
km/h Bft. km/h Grad Sektor
Do, 26.11. 3:00 14 3 22 210° SW
Do, 26.11. 2:30 14 3 22 200° S
Do, 26.11. 2:20 14 3 - 200° S
Do, 26.11. 2:10 14 3 - 200° S
Do, 26.11. 2:00 15 3 24 210° SW
Do, 26.11. 1:50 15 3 - 210° SW
Do, 26.11. 1:30 15 3 24 210° SW
Do, 26.11. 1:00 17 3 28 210° SW
Ortszeit Untergrenze Bedeckung Gattung
total tief tief mittel hoch
Do, 26.11. 1:00 30 m 8/8 8/8 - - -
Mi, 25.11. 19:00 30 m 8/8 8/8 - - -
Mi, 25.11. 13:00 60 m 8/8 8/8 - - -
Mi, 25.11. 7:00 5400 m 8/8 8/8 - - -
Mi, 25.11. 1:00 6000 m 8/8 8/8 - - -
Di, 24.11. 19:00 1320 m 8/8 8/8 - - -
Di, 24.11. 13:00 900 m 8/8 8/8 - - -
Di, 24.11. 7:00 3900 m 8/8 8/8 - - -
Ortszeit Bedeckungsgrad in Achtel und Wolkenuntergrenze
Do, 26.11. 3:00 8(630m)
Do, 26.11. 2:30 8(690m)
Do, 26.11. 2:20 8(690m)
Do, 26.11. 2:10 8(690m)
Do, 26.11. 2:00 1(60m) 8(630m)
Do, 26.11. 1:50 1(60m) 8(630m)
Do, 26.11. 1:30 7(30m) 8(540m)
Do, 26.11. 1:00 8(30m)
Ortszeit Luftdruck NN (hPa) Tendenz (hPa in 3 Std.)
Do, 26.11. 1:00 1018 - 0,4
Mi, 25.11. 19:00 1017 + 0,1
Mi, 25.11. 13:00 1018 - 0,6
Mi, 25.11. 7:00 1018 - 0,5
Mi, 25.11. 1:00 1019 - 1,2
Di, 24.11. 19:00 1021 - 0,2
Di, 24.11. 13:00 1021 - 1,2
Di, 24.11. 7:00 1023 - 0,8
Ortszeit Luftdruck NN (hPa) Tendenz (hPa in 3 Std.)
Do, 26.11. 3:00 1018 0,0
Do, 26.11. 2:30 1018 0,0
Do, 26.11. 2:20 1018 keine Meldung
Do, 26.11. 2:10 1018 keine Meldung
Do, 26.11. 2:00 1018 0,0
Do, 26.11. 1:50 1018 keine Meldung
Do, 26.11. 1:30 1018 - 0,3
Do, 26.11. 1:00 1018 - 0,4
Ortszeit Schneehöhe (cm)
Do, 26.11. 1:00 0
Mi, 25.11. 19:00 0
Mi, 25.11. 13:00 0
Mi, 25.11. 7:00 0
Mi, 25.11. 1:00 0
Di, 24.11. 19:00 0
Di, 24.11. 13:00 0
Di, 24.11. 7:00 0
Ortszeit Schneehöhe (cm)
Do, 26.11. 3:00 -
Do, 26.11. 2:30 0
Do, 26.11. 2:20 0
Do, 26.11. 2:10 0
Do, 26.11. 2:00 0
Do, 26.11. 1:50 0
Do, 26.11. 1:30 0
Do, 26.11. 1:00 0
Link zu dieser Seite / Seite empfehlen

Das Wetter in ...